sensor_id;sensor_type;location;lat;lon;timestamp;P1;durP1;ratioP1;P2;durP2;ratioP2
11238;SDS011;5677;48.488;13.436;2023-03-11T00:00:10;1.20;;;0.47;;
11238;SDS011;5677;48.488;13.436;2023-03-11T00:02:40;0.97;;;0.50;;
11238;SDS011;5677;48.488;13.436;2023-03-11T00:05:07;0.40;;;0.40;;
11238;SDS011;5677;48.488;13.436;2023-03-11T00:07:38;0.90;;;0.63;;
11238;SDS011;5677;48.488;13.436;2023-03-11T00:10:05;0.50;;;0.50;;
11238;SDS011;5677;48.488;13.436;2023-03-11T00:12:34;0.90;;;0.60;;
11238;SDS011;5677;48.488;13.436;2023-03-11T00:15:01;0.67;;;0.67;;
11238;SDS011;5677;48.488;13.436;2023-03-11T00:17:27;0.53;;;0.40;;
11238;SDS011;5677;48.488;13.436;2023-03-11T00:19:54;0.63;;;0.43;;
11238;SDS011;5677;48.488;13.436;2023-03-11T00:22:21;0.50;;;0.50;;
11238;SDS011;5677;48.488;13.436;2023-03-11T00:24:48;1.17;;;0.60;;
11238;SDS011;5677;48.488;13.436;2023-03-11T00:27:14;1.40;;;0.50;;
11238;SDS011;5677;48.488;13.436;2023-03-11T00:29:42;1.10;;;0.70;;
11238;SDS011;5677;48.488;13.436;2023-03-11T00:32:09;0.50;;;0.50;;
11238;SDS011;5677;48.488;13.436;2023-03-11T00:34:36;1.97;;;0.50;;
11238;SDS011;5677;48.488;13.436;2023-03-11T00:37:03;0.83;;;0.53;;
11238;SDS011;5677;48.488;13.436;2023-03-11T00:39:29;0.30;;;0.30;;
11238;SDS011;5677;48.488;13.436;2023-03-11T00:41:56;0.60;;;0.60;;
11238;SDS011;5677;48.488;13.436;2023-03-11T00:44:23;0.60;;;0.60;;
11238;SDS011;5677;48.488;13.436;2023-03-11T00:46:51;1.27;;;0.50;;
11238;SDS011;5677;48.488;13.436;2023-03-11T00:49:17;0.97;;;0.40;;
11238;SDS011;5677;48.488;13.436;2023-03-11T00:51:44;0.70;;;0.70;;
11238;SDS011;5677;48.488;13.436;2023-03-11T00:54:11;0.30;;;0.30;;
11238;SDS011;5677;48.488;13.436;2023-03-11T00:56:38;0.40;;;0.40;;
11238;SDS011;5677;48.488;13.436;2023-03-11T00:59:05;0.83;;;0.60;;
11238;SDS011;5677;48.488;13.436;2023-03-11T01:01:32;0.83;;;0.40;;
11238;SDS011;5677;48.488;13.436;2023-03-11T01:04:00;0.40;;;0.40;;
11238;SDS011;5677;48.488;13.436;2023-03-11T01:06:27;0.67;;;0.50;;
11238;SDS011;5677;48.488;13.436;2023-03-11T01:08:53;0.50;;;0.50;;
11238;SDS011;5677;48.488;13.436;2023-03-11T01:11:20;0.80;;;0.40;;
11238;SDS011;5677;48.488;13.436;2023-03-11T01:13:47;0.63;;;0.63;;
11238;SDS011;5677;48.488;13.436;2023-03-11T01:16:13;0.47;;;0.47;;
11238;SDS011;5677;48.488;13.436;2023-03-11T01:18:40;0.50;;;0.50;;
11238;SDS011;5677;48.488;13.436;2023-03-11T01:21:08;0.47;;;0.47;;
11238;SDS011;5677;48.488;13.436;2023-03-11T01:23:35;0.40;;;0.40;;
11238;SDS011;5677;48.488;13.436;2023-03-11T01:26:02;0.50;;;0.50;;
11238;SDS011;5677;48.488;13.436;2023-03-11T01:28:29;0.70;;;0.47;;
11238;SDS011;5677;48.488;13.436;2023-03-11T01:30:55;0.50;;;0.50;;
11238;SDS011;5677;48.488;13.436;2023-03-11T01:33:22;2.90;;;0.40;;
11238;SDS011;5677;48.488;13.436;2023-03-11T01:35:49;0.80;;;0.50;;
11238;SDS011;5677;48.488;13.436;2023-03-11T01:38:17;0.40;;;0.40;;
11238;SDS011;5677;48.488;13.436;2023-03-11T01:40:45;1.10;;;0.50;;
11238;SDS011;5677;48.488;13.436;2023-03-11T01:46:07;0.53;;;0.50;;
11238;SDS011;5677;48.488;13.436;2023-03-11T01:48:37;0.93;;;0.50;;
11238;SDS011;5677;48.488;13.436;2023-03-11T01:51:04;0.40;;;0.40;;
11238;SDS011;5677;48.488;13.436;2023-03-11T01:53:32;0.73;;;0.50;;
11238;SDS011;5677;48.488;13.436;2023-03-11T01:56:00;0.67;;;0.50;;
11238;SDS011;5677;48.488;13.436;2023-03-11T01:58:30;0.83;;;0.50;;
11238;SDS011;5677;48.488;13.436;2023-03-11T02:00:59;0.40;;;0.40;;
11238;SDS011;5677;48.488;13.436;2023-03-11T02:03:28;0.40;;;0.40;;
11238;SDS011;5677;48.488;13.436;2023-03-11T02:05:57;0.83;;;0.60;;
11238;SDS011;5677;48.488;13.436;2023-03-11T02:08:27;1.27;;;0.50;;
11238;SDS011;5677;48.488;13.436;2023-03-11T02:10:59;0.43;;;0.43;;
11238;SDS011;5677;48.488;13.436;2023-03-11T02:13:28;2.87;;;0.53;;
11238;SDS011;5677;48.488;13.436;2023-03-11T02:15:57;0.50;;;0.50;;
11238;SDS011;5677;48.488;13.436;2023-03-11T02:18:25;0.33;;;0.33;;
11238;SDS011;5677;48.488;13.436;2023-03-11T02:20:53;0.57;;;0.50;;
11238;SDS011;5677;48.488;13.436;2023-03-11T02:23:31;0.40;;;0.40;;
11238;SDS011;5677;48.488;13.436;2023-03-11T02:26:06;0.30;;;0.30;;
11238;SDS011;5677;48.488;13.436;2023-03-11T02:28:39;0.50;;;0.50;;
11238;SDS011;5677;48.488;13.436;2023-03-11T02:31:07;0.40;;;0.40;;
11238;SDS011;5677;48.488;13.436;2023-03-11T02:33:34;0.67;;;0.37;;
11238;SDS011;5677;48.488;13.436;2023-03-11T02:36:02;1.70;;;0.60;;
11238;SDS011;5677;48.488;13.436;2023-03-11T02:38:29;0.77;;;0.67;;
11238;SDS011;5677;48.488;13.436;2023-03-11T02:40:57;0.30;;;0.30;;
11238;SDS011;5677;48.488;13.436;2023-03-11T02:43:27;0.40;;;0.40;;
11238;SDS011;5677;48.488;13.436;2023-03-11T02:46:00;0.40;;;0.33;;
11238;SDS011;5677;48.488;13.436;2023-03-11T02:48:28;0.40;;;0.40;;
11238;SDS011;5677;48.488;13.436;2023-03-11T02:50:55;0.50;;;0.50;;
11238;SDS011;5677;48.488;13.436;2023-03-11T02:53:23;0.40;;;0.40;;
11238;SDS011;5677;48.488;13.436;2023-03-11T02:55:53;0.30;;;0.30;;
11238;SDS011;5677;48.488;13.436;2023-03-11T02:58:20;1.30;;;0.40;;
11238;SDS011;5677;48.488;13.436;2023-03-11T03:00:46;0.40;;;0.40;;
11238;SDS011;5677;48.488;13.436;2023-03-11T03:03:15;0.30;;;0.30;;
11238;SDS011;5677;48.488;13.436;2023-03-11T03:05:41;0.30;;;0.30;;
11238;SDS011;5677;48.488;13.436;2023-03-11T03:08:08;0.40;;;0.40;;
11238;SDS011;5677;48.488;13.436;2023-03-11T03:10:35;0.30;;;0.30;;
11238;SDS011;5677;48.488;13.436;2023-03-11T03:13:02;1.00;;;0.30;;
11238;SDS011;5677;48.488;13.436;2023-03-11T03:15:29;0.97;;;0.30;;
11238;SDS011;5677;48.488;13.436;2023-03-11T03:17:55;0.30;;;0.30;;
11238;SDS011;5677;48.488;13.436;2023-03-11T03:20:23;0.40;;;0.37;;
11238;SDS011;5677;48.488;13.436;2023-03-11T03:22:50;0.30;;;0.30;;
11238;SDS011;5677;48.488;13.436;2023-03-11T03:25:17;0.30;;;0.30;;
11238;SDS011;5677;48.488;13.436;2023-03-11T03:27:44;0.43;;;0.43;;
11238;SDS011;5677;48.488;13.436;2023-03-11T03:30:11;0.37;;;0.30;;
11238;SDS011;5677;48.488;13.436;2023-03-11T03:32:38;0.50;;;0.50;;
11238;SDS011;5677;48.488;13.436;2023-03-11T03:35:05;0.33;;;0.33;;
11238;SDS011;5677;48.488;13.436;2023-03-11T03:37:34;0.40;;;0.40;;
11238;SDS011;5677;48.488;13.436;2023-03-11T03:40:02;0.30;;;0.30;;
11238;SDS011;5677;48.488;13.436;2023-03-11T03:42:31;0.33;;;0.30;;
11238;SDS011;5677;48.488;13.436;2023-03-11T03:44:58;0.40;;;0.40;;
11238;SDS011;5677;48.488;13.436;2023-03-11T03:47:25;0.40;;;0.40;;
11238;SDS011;5677;48.488;13.436;2023-03-11T03:49:53;0.30;;;0.30;;
11238;SDS011;5677;48.488;13.436;2023-03-11T03:52:19;0.30;;;0.30;;
11238;SDS011;5677;48.488;13.436;2023-03-11T03:54:47;0.73;;;0.30;;
11238;SDS011;5677;48.488;13.436;2023-03-11T03:57:14;0.87;;;0.50;;
11238;SDS011;5677;48.488;13.436;2023-03-11T03:59:41;0.30;;;0.30;;
11238;SDS011;5677;48.488;13.436;2023-03-11T04:02:08;0.57;;;0.40;;
11238;SDS011;5677;48.488;13.436;2023-03-11T04:04:34;0.30;;;0.30;;
11238;SDS011;5677;48.488;13.436;2023-03-11T04:07:02;0.37;;;0.37;;
11238;SDS011;5677;48.488;13.436;2023-03-11T04:09:30;0.33;;;0.33;;
11238;SDS011;5677;48.488;13.436;2023-03-11T04:11:58;0.30;;;0.30;;
11238;SDS011;5677;48.488;13.436;2023-03-11T04:14:25;0.50;;;0.30;;
11238;SDS011;5677;48.488;13.436;2023-03-11T04:16:51;0.40;;;0.40;;
11238;SDS011;5677;48.488;13.436;2023-03-11T04:19:18;0.30;;;0.30;;
11238;SDS011;5677;48.488;13.436;2023-03-11T04:21:45;0.47;;;0.47;;
11238;SDS011;5677;48.488;13.436;2023-03-11T04:24:12;0.50;;;0.50;;
11238;SDS011;5677;48.488;13.436;2023-03-11T04:26:38;0.63;;;0.40;;
11238;SDS011;5677;48.488;13.436;2023-03-11T04:29:06;0.97;;;0.50;;
11238;SDS011;5677;48.488;13.436;2023-03-11T04:31:33;0.50;;;0.40;;
11238;SDS011;5677;48.488;13.436;2023-03-11T04:34:00;0.40;;;0.40;;
11238;SDS011;5677;48.488;13.436;2023-03-11T04:36:27;0.40;;;0.40;;
11238;SDS011;5677;48.488;13.436;2023-03-11T04:38:54;1.03;;;0.40;;
11238;SDS011;5677;48.488;13.436;2023-03-11T04:41:21;0.50;;;0.50;;
11238;SDS011;5677;48.488;13.436;2023-03-11T04:43:48;0.40;;;0.40;;
11238;SDS011;5677;48.488;13.436;2023-03-11T04:46:16;0.40;;;0.40;;
11238;SDS011;5677;48.488;13.436;2023-03-11T04:48:43;0.30;;;0.30;;
11238;SDS011;5677;48.488;13.436;2023-03-11T04:51:09;0.40;;;0.40;;
11238;SDS011;5677;48.488;13.436;2023-03-11T04:53:36;0.47;;;0.47;;
11238;SDS011;5677;48.488;13.436;2023-03-11T04:56:03;0.40;;;0.40;;
11238;SDS011;5677;48.488;13.436;2023-03-11T04:58:30;0.30;;;0.30;;
11238;SDS011;5677;48.488;13.436;2023-03-11T05:00:57;2.53;;;0.40;;
11238;SDS011;5677;48.488;13.436;2023-03-11T05:03:25;1.17;;;0.30;;
11238;SDS011;5677;48.488;13.436;2023-03-11T05:05:52;0.50;;;0.50;;
11238;SDS011;5677;48.488;13.436;2023-03-11T05:08:20;0.50;;;0.50;;
11238;SDS011;5677;48.488;13.436;2023-03-11T05:10:47;0.30;;;0.30;;
11238;SDS011;5677;48.488;13.436;2023-03-11T05:13:14;1.17;;;0.40;;
11238;SDS011;5677;48.488;13.436;2023-03-11T05:15:41;0.40;;;0.40;;
11238;SDS011;5677;48.488;13.436;2023-03-11T05:18:07;0.97;;;0.90;;
11238;SDS011;5677;48.488;13.436;2023-03-11T05:20:35;1.23;;;0.57;;
11238;SDS011;5677;48.488;13.436;2023-03-11T05:23:02;0.50;;;0.50;;
11238;SDS011;5677;48.488;13.436;2023-03-11T05:25:30;0.87;;;0.50;;
11238;SDS011;5677;48.488;13.436;2023-03-11T05:27:56;2.20;;;0.50;;
11238;SDS011;5677;48.488;13.436;2023-03-11T05:30:23;0.37;;;0.37;;
11238;SDS011;5677;48.488;13.436;2023-03-11T05:32:50;2.33;;;0.80;;
11238;SDS011;5677;48.488;13.436;2023-03-11T05:35:17;0.50;;;0.50;;
11238;SDS011;5677;48.488;13.436;2023-03-11T05:37:46;1.10;;;0.63;;
11238;SDS011;5677;48.488;13.436;2023-03-11T05:40:14;1.73;;;0.70;;
11238;SDS011;5677;48.488;13.436;2023-03-11T05:42:41;1.83;;;0.73;;
11238;SDS011;5677;48.488;13.436;2023-03-11T05:45:08;0.63;;;0.63;;
11238;SDS011;5677;48.488;13.436;2023-03-11T05:47:35;2.10;;;0.70;;
11238;SDS011;5677;48.488;13.436;2023-03-11T05:50:02;1.53;;;0.67;;
11238;SDS011;5677;48.488;13.436;2023-03-11T05:52:30;1.40;;;0.60;;
11238;SDS011;5677;48.488;13.436;2023-03-11T05:54:59;0.97;;;0.77;;
11238;SDS011;5677;48.488;13.436;2023-03-11T05:57:25;1.33;;;0.60;;
11238;SDS011;5677;48.488;13.436;2023-03-11T05:59:53;0.50;;;0.50;;
11238;SDS011;5677;48.488;13.436;2023-03-11T06:02:19;0.50;;;0.50;;
11238;SDS011;5677;48.488;13.436;2023-03-11T06:04:47;0.70;;;0.50;;
11238;SDS011;5677;48.488;13.436;2023-03-11T06:07:14;0.40;;;0.40;;
11238;SDS011;5677;48.488;13.436;2023-03-11T06:09:40;1.27;;;0.50;;
11238;SDS011;5677;48.488;13.436;2023-03-11T06:12:09;0.80;;;0.80;;
11238;SDS011;5677;48.488;13.436;2023-03-11T06:14:37;2.33;;;0.70;;
11238;SDS011;5677;48.488;13.436;2023-03-11T06:17:03;1.33;;;0.90;;
11238;SDS011;5677;48.488;13.436;2023-03-11T06:19:30;2.13;;;0.73;;
11238;SDS011;5677;48.488;13.436;2023-03-11T06:21:57;2.67;;;0.80;;
11238;SDS011;5677;48.488;13.436;2023-03-11T06:24:25;1.60;;;0.77;;
11238;SDS011;5677;48.488;13.436;2023-03-11T06:26:51;1.07;;;0.77;;
11238;SDS011;5677;48.488;13.436;2023-03-11T06:29:20;1.40;;;0.60;;
11238;SDS011;5677;48.488;13.436;2023-03-11T06:31:48;0.50;;;0.50;;
11238;SDS011;5677;48.488;13.436;2023-03-11T06:34:15;0.43;;;0.43;;
11238;SDS011;5677;48.488;13.436;2023-03-11T06:36:41;0.70;;;0.60;;
11238;SDS011;5677;48.488;13.436;2023-03-11T06:39:10;0.60;;;0.60;;
11238;SDS011;5677;48.488;13.436;2023-03-11T06:41:38;0.70;;;0.70;;
11238;SDS011;5677;48.488;13.436;2023-03-11T06:44:05;0.60;;;0.53;;
11238;SDS011;5677;48.488;13.436;2023-03-11T06:46:33;0.50;;;0.50;;
11238;SDS011;5677;48.488;13.436;2023-03-11T06:49:00;0.50;;;0.50;;
11238;SDS011;5677;48.488;13.436;2023-03-11T06:51:26;0.50;;;0.50;;
11238;SDS011;5677;48.488;13.436;2023-03-11T06:53:53;1.37;;;0.67;;
11238;SDS011;5677;48.488;13.436;2023-03-11T06:56:20;1.43;;;0.80;;
11238;SDS011;5677;48.488;13.436;2023-03-11T06:58:48;1.03;;;0.70;;
11238;SDS011;5677;48.488;13.436;2023-03-11T07:01:15;0.63;;;0.60;;
11238;SDS011;5677;48.488;13.436;2023-03-11T07:03:45;1.40;;;0.67;;
11238;SDS011;5677;48.488;13.436;2023-03-11T07:06:13;0.60;;;0.60;;
11238;SDS011;5677;48.488;13.436;2023-03-11T07:08:42;0.57;;;0.53;;
11238;SDS011;5677;48.488;13.436;2023-03-11T07:11:10;3.27;;;0.50;;
11238;SDS011;5677;48.488;13.436;2023-03-11T07:13:39;0.50;;;0.50;;
11238;SDS011;5677;48.488;13.436;2023-03-11T07:16:06;0.83;;;0.60;;
11238;SDS011;5677;48.488;13.436;2023-03-11T07:18:35;1.60;;;0.60;;
11238;SDS011;5677;48.488;13.436;2023-03-11T07:21:04;0.97;;;0.73;;
11238;SDS011;5677;48.488;13.436;2023-03-11T07:23:33;0.90;;;0.80;;
11238;SDS011;5677;48.488;13.436;2023-03-11T07:26:00;0.83;;;0.50;;
11238;SDS011;5677;48.488;13.436;2023-03-11T07:28:28;0.53;;;0.53;;
11238;SDS011;5677;48.488;13.436;2023-03-11T07:30:56;2.63;;;0.73;;
11238;SDS011;5677;48.488;13.436;2023-03-11T07:33:22;3.77;;;0.90;;
11238;SDS011;5677;48.488;13.436;2023-03-11T07:35:49;1.50;;;0.80;;
11238;SDS011;5677;48.488;13.436;2023-03-11T07:38:18;4.60;;;1.07;;
11238;SDS011;5677;48.488;13.436;2023-03-11T07:40:45;2.20;;;1.23;;
11238;SDS011;5677;48.488;13.436;2023-03-11T07:43:11;1.70;;;1.07;;
11238;SDS011;5677;48.488;13.436;2023-03-11T07:45:38;2.20;;;0.80;;
11238;SDS011;5677;48.488;13.436;2023-03-11T07:48:05;3.73;;;0.93;;
11238;SDS011;5677;48.488;13.436;2023-03-11T07:50:32;2.80;;;1.00;;
11238;SDS011;5677;48.488;13.436;2023-03-11T07:52:58;3.57;;;0.77;;
11238;SDS011;5677;48.488;13.436;2023-03-11T07:55:26;3.23;;;1.00;;
11238;SDS011;5677;48.488;13.436;2023-03-11T07:57:53;3.30;;;1.20;;
11238;SDS011;5677;48.488;13.436;2023-03-11T08:00:21;5.70;;;1.00;;
11238;SDS011;5677;48.488;13.436;2023-03-11T08:02:48;1.53;;;0.50;;
11238;SDS011;5677;48.488;13.436;2023-03-11T08:05:15;1.33;;;0.73;;
11238;SDS011;5677;48.488;13.436;2023-03-11T08:07:42;3.60;;;0.70;;
11238;SDS011;5677;48.488;13.436;2023-03-11T08:10:10;1.10;;;1.00;;
11238;SDS011;5677;48.488;13.436;2023-03-11T08:12:38;3.80;;;0.90;;
11238;SDS011;5677;48.488;13.436;2023-03-11T08:15:05;2.93;;;0.73;;
11238;SDS011;5677;48.488;13.436;2023-03-11T08:17:33;2.50;;;0.80;;
11238;SDS011;5677;48.488;13.436;2023-03-11T08:20:00;2.03;;;0.90;;
11238;SDS011;5677;48.488;13.436;2023-03-11T08:22:26;2.93;;;0.80;;
11238;SDS011;5677;48.488;13.436;2023-03-11T08:24:54;1.20;;;0.60;;
11238;SDS011;5677;48.488;13.436;2023-03-11T08:27:21;0.70;;;0.70;;
11238;SDS011;5677;48.488;13.436;2023-03-11T08:29:49;13.97;;;1.60;;
11238;SDS011;5677;48.488;13.436;2023-03-11T08:32:15;6.80;;;1.47;;
11238;SDS011;5677;48.488;13.436;2023-03-11T08:34:42;3.07;;;0.90;;
11238;SDS011;5677;48.488;13.436;2023-03-11T08:37:09;1.47;;;0.80;;
11238;SDS011;5677;48.488;13.436;2023-03-11T08:39:36;1.57;;;1.00;;
11238;SDS011;5677;48.488;13.436;2023-03-11T08:42:03;2.53;;;1.00;;
11238;SDS011;5677;48.488;13.436;2023-03-11T08:44:30;5.20;;;0.80;;
11238;SDS011;5677;48.488;13.436;2023-03-11T08:46:59;3.90;;;0.93;;
11238;SDS011;5677;48.488;13.436;2023-03-11T08:49:25;4.67;;;0.90;;
11238;SDS011;5677;48.488;13.436;2023-03-11T08:51:52;1.77;;;0.70;;
11238;SDS011;5677;48.488;13.436;2023-03-11T08:54:19;4.30;;;1.10;;
11238;SDS011;5677;48.488;13.436;2023-03-11T08:56:46;3.90;;;1.03;;
11238;SDS011;5677;48.488;13.436;2023-03-11T08:59:13;6.83;;;0.90;;
11238;SDS011;5677;48.488;13.436;2023-03-11T09:01:39;0.83;;;0.67;;
11238;SDS011;5677;48.488;13.436;2023-03-11T09:04:08;3.70;;;1.00;;
11238;SDS011;5677;48.488;13.436;2023-03-11T09:06:36;3.03;;;1.03;;
11238;SDS011;5677;48.488;13.436;2023-03-11T09:09:02;5.03;;;0.80;;
11238;SDS011;5677;48.488;13.436;2023-03-11T09:11:29;6.77;;;1.07;;
11238;SDS011;5677;48.488;13.436;2023-03-11T09:13:56;2.43;;;1.10;;
11238;SDS011;5677;48.488;13.436;2023-03-11T09:16:23;4.00;;;0.80;;
11238;SDS011;5677;48.488;13.436;2023-03-11T09:18:50;2.57;;;0.97;;
11238;SDS011;5677;48.488;13.436;2023-03-11T09:21:18;7.37;;;1.30;;
11238;SDS011;5677;48.488;13.436;2023-03-11T09:23:45;4.40;;;1.20;;
11238;SDS011;5677;48.488;13.436;2023-03-11T09:26:12;3.80;;;1.23;;
11238;SDS011;5677;48.488;13.436;2023-03-11T09:28:39;5.67;;;1.33;;
11238;SDS011;5677;48.488;13.436;2023-03-11T09:31:06;6.47;;;1.37;;
11238;SDS011;5677;48.488;13.436;2023-03-11T09:33:35;6.33;;;1.77;;
11238;SDS011;5677;48.488;13.436;2023-03-11T09:36:03;3.13;;;1.27;;
11238;SDS011;5677;48.488;13.436;2023-03-11T09:38:32;5.23;;;1.27;;
11238;SDS011;5677;48.488;13.436;2023-03-11T09:41:00;5.27;;;1.23;;
11238;SDS011;5677;48.488;13.436;2023-03-11T09:43:42;4.47;;;1.40;;
11238;SDS011;5677;48.488;13.436;2023-03-11T09:46:22;5.87;;;1.13;;
11238;SDS011;5677;48.488;13.436;2023-03-11T09:49:06;4.33;;;1.13;;
11238;SDS011;5677;48.488;13.436;2023-03-11T09:51:40;4.43;;;1.33;;
11238;SDS011;5677;48.488;13.436;2023-03-11T09:54:12;5.90;;;1.40;;
11238;SDS011;5677;48.488;13.436;2023-03-11T09:56:39;5.70;;;1.20;;
11238;SDS011;5677;48.488;13.436;2023-03-11T09:59:08;4.90;;;1.30;;
11238;SDS011;5677;48.488;13.436;2023-03-11T10:01:42;3.33;;;1.00;;
11238;SDS011;5677;48.488;13.436;2023-03-11T10:04:12;2.47;;;1.20;;
11238;SDS011;5677;48.488;13.436;2023-03-11T10:06:43;5.33;;;1.50;;
11238;SDS011;5677;48.488;13.436;2023-03-11T10:09:26;5.07;;;1.00;;
11238;SDS011;5677;48.488;13.436;2023-03-11T10:12:01;2.57;;;0.87;;
11238;SDS011;5677;48.488;13.436;2023-03-11T10:14:41;3.43;;;1.17;;
11238;SDS011;5677;48.488;13.436;2023-03-11T10:17:21;10.13;;;1.43;;
11238;SDS011;5677;48.488;13.436;2023-03-11T10:20:08;2.97;;;1.20;;
11238;SDS011;5677;48.488;13.436;2023-03-11T10:22:40;2.43;;;0.87;;
11238;SDS011;5677;48.488;13.436;2023-03-11T10:25:17;1.80;;;0.80;;
11238;SDS011;5677;48.488;13.436;2023-03-11T10:27:51;0.87;;;0.80;;
11238;SDS011;5677;48.488;13.436;2023-03-11T10:30:23;3.10;;;0.90;;
11238;SDS011;5677;48.488;13.436;2023-03-11T10:32:55;2.23;;;0.70;;
11238;SDS011;5677;48.488;13.436;2023-03-11T10:35:27;2.27;;;0.80;;
11238;SDS011;5677;48.488;13.436;2023-03-11T10:37:59;1.17;;;0.80;;
11238;SDS011;5677;48.488;13.436;2023-03-11T10:40:33;1.50;;;0.80;;
11238;SDS011;5677;48.488;13.436;2023-03-11T10:43:02;0.77;;;0.60;;
11238;SDS011;5677;48.488;13.436;2023-03-11T10:45:36;2.60;;;0.90;;
11238;SDS011;5677;48.488;13.436;2023-03-11T10:48:07;2.37;;;1.03;;
11238;SDS011;5677;48.488;13.436;2023-03-11T10:50:35;1.13;;;0.70;;
11238;SDS011;5677;48.488;13.436;2023-03-11T10:53:07;0.77;;;0.60;;
11238;SDS011;5677;48.488;13.436;2023-03-11T10:55:37;0.83;;;0.63;;
11238;SDS011;5677;48.488;13.436;2023-03-11T10:58:11;2.30;;;0.90;;
11238;SDS011;5677;48.488;13.436;2023-03-11T11:00:40;2.10;;;0.73;;
11238;SDS011;5677;48.488;13.436;2023-03-11T11:03:11;1.07;;;0.70;;
11238;SDS011;5677;48.488;13.436;2023-03-11T11:05:46;1.80;;;0.87;;
11238;SDS011;5677;48.488;13.436;2023-03-11T11:08:24;2.70;;;0.70;;
11238;SDS011;5677;48.488;13.436;2023-03-11T11:10:52;2.83;;;0.70;;
11238;SDS011;5677;48.488;13.436;2023-03-11T11:13:21;1.17;;;0.90;;
11238;SDS011;5677;48.488;13.436;2023-03-11T11:15:56;0.77;;;0.70;;
11238;SDS011;5677;48.488;13.436;2023-03-11T11:18:25;2.30;;;1.00;;
11238;SDS011;5677;48.488;13.436;2023-03-11T11:20:56;6.03;;;1.00;;
11238;SDS011;5677;48.488;13.436;2023-03-11T11:23:35;1.60;;;0.70;;
11238;SDS011;5677;48.488;13.436;2023-03-11T11:26:12;1.30;;;0.90;;
11238;SDS011;5677;48.488;13.436;2023-03-11T11:28:42;1.87;;;0.87;;
11238;SDS011;5677;48.488;13.436;2023-03-11T11:31:18;3.43;;;1.03;;
11238;SDS011;5677;48.488;13.436;2023-03-11T11:33:49;2.40;;;1.10;;
11238;SDS011;5677;48.488;13.436;2023-03-11T11:36:17;1.33;;;0.77;;
11238;SDS011;5677;48.488;13.436;2023-03-11T11:38:48;3.93;;;1.17;;
11238;SDS011;5677;48.488;13.436;2023-03-11T11:41:20;2.67;;;1.17;;
11238;SDS011;5677;48.488;13.436;2023-03-11T11:43:50;0.93;;;0.70;;
11238;SDS011;5677;48.488;13.436;2023-03-11T11:46:20;2.00;;;0.70;;
11238;SDS011;5677;48.488;13.436;2023-03-11T11:48:54;1.90;;;0.93;;
11238;SDS011;5677;48.488;13.436;2023-03-11T11:51:30;1.60;;;0.80;;
11238;SDS011;5677;48.488;13.436;2023-03-11T11:54:00;2.87;;;1.10;;
11238;SDS011;5677;48.488;13.436;2023-03-11T11:56:42;1.23;;;0.73;;
11238;SDS011;5677;48.488;13.436;2023-03-11T11:59:12;2.00;;;1.00;;
11238;SDS011;5677;48.488;13.436;2023-03-11T12:01:43;1.40;;;0.80;;
11238;SDS011;5677;48.488;13.436;2023-03-11T12:04:25;2.47;;;0.80;;
11238;SDS011;5677;48.488;13.436;2023-03-11T12:07:10;3.07;;;1.03;;
11238;SDS011;5677;48.488;13.436;2023-03-11T12:10:10;2.03;;;0.87;;
11238;SDS011;5677;48.488;13.436;2023-03-11T12:12:47;3.33;;;1.10;;
11238;SDS011;5677;48.488;13.436;2023-03-11T12:15:30;3.00;;;0.90;;
11238;SDS011;5677;48.488;13.436;2023-03-11T12:18:04;0.73;;;0.73;;
11238;SDS011;5677;48.488;13.436;2023-03-11T12:20:37;1.10;;;0.77;;
11238;SDS011;5677;48.488;13.436;2023-03-11T12:23:14;1.37;;;0.83;;
11238;SDS011;5677;48.488;13.436;2023-03-11T12:25:45;3.00;;;0.90;;
11238;SDS011;5677;48.488;13.436;2023-03-11T12:28:27;3.17;;;0.70;;
11238;SDS011;5677;48.488;13.436;2023-03-11T12:31:12;2.87;;;0.90;;
11238;SDS011;5677;48.488;13.436;2023-03-11T12:33:39;2.80;;;0.87;;
11238;SDS011;5677;48.488;13.436;2023-03-11T12:36:17;1.60;;;1.30;;
11238;SDS011;5677;48.488;13.436;2023-03-11T12:38:48;1.30;;;0.90;;
11238;SDS011;5677;48.488;13.436;2023-03-11T12:41:26;1.70;;;1.00;;
11238;SDS011;5677;48.488;13.436;2023-03-11T12:44:11;1.57;;;0.97;;
11238;SDS011;5677;48.488;13.436;2023-03-11T12:49:53;1.77;;;0.80;;
11238;SDS011;5677;48.488;13.436;2023-03-11T12:52:27;1.87;;;0.70;;
11238;SDS011;5677;48.488;13.436;2023-03-11T13:01:16;1.67;;;0.73;;
11238;SDS011;5677;48.488;13.436;2023-03-11T13:03:58;0.80;;;0.80;;
11238;SDS011;5677;48.488;13.436;2023-03-11T13:06:35;1.20;;;0.70;;
11238;SDS011;5677;48.488;13.436;2023-03-11T13:09:27;1.43;;;0.87;;
11238;SDS011;5677;48.488;13.436;2023-03-11T13:11:54;1.30;;;0.80;;
11238;SDS011;5677;48.488;13.436;2023-03-11T13:14:26;1.07;;;0.80;;
11238;SDS011;5677;48.488;13.436;2023-03-11T13:16:57;0.80;;;0.60;;
11238;SDS011;5677;48.488;13.436;2023-03-11T13:19:50;1.07;;;0.90;;
11238;SDS011;5677;48.488;13.436;2023-03-11T13:25:25;0.83;;;0.80;;
11238;SDS011;5677;48.488;13.436;2023-03-11T13:27:59;2.90;;;0.83;;
11238;SDS011;5677;48.488;13.436;2023-03-11T13:30:50;0.83;;;0.80;;
11238;SDS011;5677;48.488;13.436;2023-03-11T13:33:23;5.60;;;1.00;;
11238;SDS011;5677;48.488;13.436;2023-03-11T13:36:07;0.70;;;0.60;;
11238;SDS011;5677;48.488;13.436;2023-03-11T13:41:47;0.80;;;0.80;;
11238;SDS011;5677;48.488;13.436;2023-03-11T13:44:19;1.80;;;0.90;;
11238;SDS011;5677;48.488;13.436;2023-03-11T13:46:51;1.37;;;0.50;;
11238;SDS011;5677;48.488;13.436;2023-03-11T13:49:28;2.10;;;0.67;;
11238;SDS011;5677;48.488;13.436;2023-03-11T13:52:00;1.10;;;1.00;;
11238;SDS011;5677;48.488;13.436;2023-03-11T13:54:34;0.80;;;0.80;;
11238;SDS011;5677;48.488;13.436;2023-03-11T13:57:04;2.07;;;1.10;;
11238;SDS011;5677;48.488;13.436;2023-03-11T13:59:32;1.67;;;0.80;;
11238;SDS011;5677;48.488;13.436;2023-03-11T14:02:00;1.30;;;0.70;;
11238;SDS011;5677;48.488;13.436;2023-03-11T14:04:31;2.53;;;0.60;;
11238;SDS011;5677;48.488;13.436;2023-03-11T14:07:00;0.77;;;0.70;;
11238;SDS011;5677;48.488;13.436;2023-03-11T14:09:38;0.97;;;0.70;;
11238;SDS011;5677;48.488;13.436;2023-03-11T14:12:05;1.33;;;0.80;;
11238;SDS011;5677;48.488;13.436;2023-03-11T14:14:34;1.53;;;0.70;;
11238;SDS011;5677;48.488;13.436;2023-03-11T14:17:11;0.60;;;0.50;;
11238;SDS011;5677;48.488;13.436;2023-03-11T14:19:42;0.87;;;0.77;;
11238;SDS011;5677;48.488;13.436;2023-03-11T14:22:09;1.53;;;0.50;;
11238;SDS011;5677;48.488;13.436;2023-03-11T14:24:35;2.17;;;0.90;;
11238;SDS011;5677;48.488;13.436;2023-03-11T14:27:06;0.50;;;0.50;;
11238;SDS011;5677;48.488;13.436;2023-03-11T14:29:35;0.60;;;0.60;;
11238;SDS011;5677;48.488;13.436;2023-03-11T14:32:15;0.57;;;0.57;;
11238;SDS011;5677;48.488;13.436;2023-03-11T14:34:52;0.83;;;0.53;;
11238;SDS011;5677;48.488;13.436;2023-03-11T14:37:23;0.77;;;0.60;;
11238;SDS011;5677;48.488;13.436;2023-03-11T14:39:52;0.50;;;0.50;;
11238;SDS011;5677;48.488;13.436;2023-03-11T14:42:20;1.87;;;0.67;;
11238;SDS011;5677;48.488;13.436;2023-03-11T14:44:51;12.43;;;1.13;;
11238;SDS011;5677;48.488;13.436;2023-03-11T14:47:28;1.63;;;0.60;;
11238;SDS011;5677;48.488;13.436;2023-03-11T14:50:01;1.63;;;0.70;;
11238;SDS011;5677;48.488;13.436;2023-03-11T14:52:31;2.60;;;0.63;;
11238;SDS011;5677;48.488;13.436;2023-03-11T14:55:01;1.10;;;0.60;;
11238;SDS011;5677;48.488;13.436;2023-03-11T14:57:34;1.20;;;0.63;;
11238;SDS011;5677;48.488;13.436;2023-03-11T15:00:05;1.80;;;0.70;;
11238;SDS011;5677;48.488;13.436;2023-03-11T15:02:42;1.50;;;0.80;;
11238;SDS011;5677;48.488;13.436;2023-03-11T15:05:20;0.70;;;0.60;;
11238;SDS011;5677;48.488;13.436;2023-03-11T15:07:55;1.10;;;0.70;;
11238;SDS011;5677;48.488;13.436;2023-03-11T15:10:25;1.30;;;0.83;;
11238;SDS011;5677;48.488;13.436;2023-03-11T15:12:54;2.17;;;0.70;;
11238;SDS011;5677;48.488;13.436;2023-03-11T15:15:30;2.37;;;0.77;;
11238;SDS011;5677;48.488;13.436;2023-03-11T15:17:57;0.93;;;0.87;;
11238;SDS011;5677;48.488;13.436;2023-03-11T15:20:27;0.57;;;0.43;;